Meishomaru — JD3044 — position and weather

sailwx.info

Track history (hours):
 
Tides and Currents Weather Stations Pressure Air Temp Water Temp Dewpoint Dewpoint Depression Visibility Wind Speed Wind Dir Waves Ship Positions

Meishomaru

Last reported at 2016-Feb-08 22:33 UTC. Time now 2016-Feb-08 23:18 UTC.
Position N 35°33' E 139°55'.

Length 68 m; draft 2.6 m.

Type: Tanker. MMSI: 431001216.

Date/timePositionNaut miles runAvg speedWind from/ knotsBaromVisibWave heightAir tempDewpointWater temp
2016-Feb-08 22:33N 35°33' E 139°55'0 0.0
2016-Feb-08 21:30N 35°33' E 139°55'0 0.1
2016-Feb-08 20:30N 35°33' E 139°55'0 0.0
2016-Feb-08 19:33N 35°33' E 139°55'0 0.0
2016-Feb-08 18:33N 35°33' E 139°55'0 0.0
2016-Feb-08 17:33N 35°33' E 139°55'0 0.0
2016-Feb-08 16:24N 35°33' E 139°55'0 0.1
2016-Feb-08 15:33N 35°33' E 139°55'0 0.0
2016-Feb-08 14:33N 35°33' E 139°55'0 0.0
2016-Feb-08 13:33N 35°33' E 139°55'0 0.0
2016-Feb-08 12:33N 35°33' E 139°55'0 0.0
2016-Feb-08 11:33N 35°33' E 139°55'0 0.0
2016-Feb-08 10:27N 35°33' E 139°55'0 0.0
2016-Feb-08 09:24N 35°33' E 139°55'0 0.1
2016-Feb-08 08:33N 35°33' E 139°55'0 0.0
2016-Feb-08 07:33N 35°33' E 139°55'0 0.0
2016-Feb-08 06:27N 35°33' E 139°55'0 0.1
2016-Feb-08 05:30N 35°33' E 139°55'0 0.0
2016-Feb-08 04:33N 35°33' E 139°55'0 0.0
2016-Feb-08 03:33N 35°33' E 139°55'0 0.0
2016-Feb-08 02:33N 35°33' E 139°55'0 0.0
2016-Feb-08 01:33N 35°33' E 139°55'0 0.0
2016-Feb-08 00:33N 35°33' E 139°55'0 0.0
2016-Feb-07 23:30N 35°33' E 139°55'4 4.6
2016-Feb-07 22:33N 35°29' E 139°52'1111.2
2016-Feb-07 21:33N 35°20' E 139°44'1110.7
2016-Feb-07 20:33N 35°10' E 139°47'1211.8
2016-Feb-07 19:32N 34°58' E 139°44'12 9.4
2016-Feb-07 18:14N 34°52' E 139°57'912.5
2016-Feb-07 17:33N 34°57' E 140°06'2612.1
2016-Feb-07 15:26N 35°13' E 140°30'1112.3
2016-Feb-07 14:31N 35°22' E 140°38'32 8.2
2016-Feb-07 10:32N 35°55' E 140°41'4 0.3
2016-Feb-06 23:34N 35°58' E 140°43'43 6.6
2016-Feb-06 17:04N 35°16' E 140°32'20 7.9
2016-Feb-06 14:28N 35°02' E 140°14'1010.4
2016-Feb-06 13:30N 34°56' E 140°04'18 7.7
2016-Feb-06 11:07N 35°04' E 139°44'712.5
2016-Feb-06 10:33N 35°11' E 139°46'1212.3
2016-Feb-06 09:33N 35°23' E 139°42'1212.4
2016-Feb-06 08:34N 35°31' E 139°54'6 6.2
2016-Feb-06 07:31N 35°31' E 140°02'0 0.0
2016-Feb-06 06:31N 35°31' E 140°02'0 0.0
2016-Feb-06 05:28N 35°31' E 140°02'0 0.0
2016-Feb-06 04:31N 35°31' E 140°02'1 1.0
2016-Feb-06 03:33N 35°31' E 140°01'0 0.2
2016-Feb-06 02:32N 35°31' E 140°01'0 0.0
2016-Feb-06 01:32N 35°31' E 140°01'0 0.0
2016-Feb-06 00:26N 35°31' E 140°01'0 0.0
2016-Feb-05 23:32N 35°31' E 140°01'0 0.0
2016-Feb-05 22:32N 35°31' E 140°01'0 0.0
2016-Feb-05 21:20N 35°31' E 140°01'0 0.0
2016-Feb-05 20:31N 35°31' E 140°01'9 9.2
2016-Feb-05 19:33N 35°28' E 139°51'1111.0
2016-Feb-05 18:33N 35°18' E 139°45'1211.4
2016-Feb-05 17:30N 35°06' E 139°45'  
2016-Feb-02 05:33N 35°11' E 139°45'1211.8
2016-Feb-02 04:33N 35°23' E 139°42'1212.2
2016-Feb-02 03:33N 35°30' E 139°54'7 7.2
2016-Feb-02 02:33N 35°31' E 140°02'0 0.0
2016-Feb-02 01:33N 35°31' E 140°02'0 0.0
2016-Feb-02 00:33N 35°31' E 140°02'0 0.0
2016-Feb-01 23:33N 35°31' E 140°02'6 6.5
2016-Feb-01 22:33N 35°33' E 139°55'0 0.0
2016-Feb-01 21:31N 35°33' E 139°55'0 0.0
2016-Feb-01 20:25N 35°33' E 139°55'0 0.0
2016-Feb-01 19:31N 35°33' E 139°55'0 0.0
2016-Feb-01 18:28N 35°33' E 139°55'0 0.0
2016-Feb-01 17:31N 35°33' E 139°55'0 0.0
2016-Feb-01 16:31N 35°33' E 139°55'0 0.0
2016-Feb-01 15:31N 35°33' E 139°55'0 0.0
2016-Feb-01 14:31N 35°33' E 139°55'0 0.0
2016-Feb-01 13:31N 35°33' E 139°55'0 0.0
2016-Feb-01 12:31N 35°33' E 139°55'9 9.1
2016-Feb-01 11:33N 35°26' E 139°48'1110.6
2016-Feb-01 10:34N 35°16' E 139°47'1211.9
2016-Feb-01 09:33N 35°04' E 139°43'  
Track history (hours):
 
Tides and Currents Weather Stations Pressure Air Temp Water Temp Dewpoint Dewpoint Depression Visibility Wind Speed Wind Dir Waves Ship Positions

Meishomaru

Last reported at 2016-Feb-08 22:33 UTC. Time now 2016-Feb-08 23:18 UTC.
Position N 35°33' E 139°55'.

Length 68 m; draft 2.6 m.

Type: Tanker. MMSI: 431001216.

Date/timePositionNaut miles runAvg speedWind from/ knotsBaromVisibWave heightAir tempDewpointWater temp
2016-Feb-08 22:33N 35°33' E 139°55'0 0.0
2016-Feb-08 21:30N 35°33' E 139°55'0 0.1
2016-Feb-08 20:30N 35°33' E 139°55'0 0.0
2016-Feb-08 19:33N 35°33' E 139°55'0 0.0
2016-Feb-08 18:33N 35°33' E 139°55'0 0.0
2016-Feb-08 17:33N 35°33' E 139°55'0 0.0
2016-Feb-08 16:24N 35°33' E 139°55'0 0.1
2016-Feb-08 15:33N 35°33' E 139°55'0 0.0
2016-Feb-08 14:33N 35°33' E 139°55'0 0.0
2016-Feb-08 13:33N 35°33' E 139°55'0 0.0
2016-Feb-08 12:33N 35°33' E 139°55'0 0.0
2016-Feb-08 11:33N 35°33' E 139°55'0 0.0
2016-Feb-08 10:27N 35°33' E 139°55'0 0.0
2016-Feb-08 09:24N 35°33' E 139°55'0 0.1
2016-Feb-08 08:33N 35°33' E 139°55'0 0.0
2016-Feb-08 07:33N 35°33' E 139°55'0 0.0
2016-Feb-08 06:27N 35°33' E 139°55'0 0.1
2016-Feb-08 05:30N 35°33' E 139°55'0 0.0
2016-Feb-08 04:33N 35°33' E 139°55'0 0.0
2016-Feb-08 03:33N 35°33' E 139°55'0 0.0
2016-Feb-08 02:33N 35°33' E 139°55'0 0.0
2016-Feb-08 01:33N 35°33' E 139°55'0 0.0
2016-Feb-08 00:33N 35°33' E 139°55'0 0.0
2016-Feb-07 23:30N 35°33' E 139°55'4 4.6
2016-Feb-07 22:33N 35°29' E 139°52'1111.2
2016-Feb-07 21:33N 35°20' E 139°44'1110.7
2016-Feb-07 20:33N 35°10' E 139°47'1211.8
2016-Feb-07 19:32N 34°58' E 139°44'12 9.4
2016-Feb-07 18:14N 34°52' E 139°57'912.5
2016-Feb-07 17:33N 34°57' E 140°06'2612.1
2016-Feb-07 15:26N 35°13' E 140°30'1112.3
2016-Feb-07 14:31N 35°22' E 140°38'32 8.2
2016-Feb-07 10:32N 35°55' E 140°41'4 0.3
2016-Feb-06 23:34N 35°58' E 140°43'43 6.6
2016-Feb-06 17:04N 35°16' E 140°32'20 7.9
2016-Feb-06 14:28N 35°02' E 140°14'1010.4
2016-Feb-06 13:30N 34°56' E 140°04'18 7.7
2016-Feb-06 11:07N 35°04' E 139°44'712.5
2016-Feb-06 10:33N 35°11' E 139°46'1212.3
2016-Feb-06 09:33N 35°23' E 139°42'1212.4
2016-Feb-06 08:34N 35°31' E 139°54'6 6.2
2016-Feb-06 07:31N 35°31' E 140°02'0 0.0
2016-Feb-06 06:31N 35°31' E 140°02'0 0.0
2016-Feb-06 05:28N 35°31' E 140°02'0 0.0
2016-Feb-06 04:31N 35°31' E 140°02'1 1.0
2016-Feb-06 03:33N 35°31' E 140°01'0 0.2
2016-Feb-06 02:32N 35°31' E 140°01'0 0.0
2016-Feb-06 01:32N 35°31' E 140°01'0 0.0
2016-Feb-06 00:26N 35°31' E 140°01'0 0.0
2016-Feb-05 23:32N 35°31' E 140°01'0 0.0
2016-Feb-05 22:32N 35°31' E 140°01'0 0.0
2016-Feb-05 21:20N 35°31' E 140°01'0 0.0
2016-Feb-05 20:31N 35°31' E 140°01'9 9.2
2016-Feb-05 19:33N 35°28' E 139°51'1111.0
2016-Feb-05 18:33N 35°18' E 139°45'1211.4
2016-Feb-05 17:30N 35°06' E 139°45'  
2016-Feb-02 05:33N 35°11' E 139°45'1211.8
2016-Feb-02 04:33N 35°23' E 139°42'1212.2
2016-Feb-02 03:33N 35°30' E 139°54'7 7.2
2016-Feb-02 02:33N 35°31' E 140°02'0 0.0
2016-Feb-02 01:33N 35°31' E 140°02'0 0.0
2016-Feb-02 00:33N 35°31' E 140°02'0 0.0
2016-Feb-01 23:33N 35°31' E 140°02'6 6.5
2016-Feb-01 22:33N 35°33' E 139°55'0 0.0
2016-Feb-01 21:31N 35°33' E 139°55'0 0.0
2016-Feb-01 20:25N 35°33' E 139°55'0 0.0
2016-Feb-01 19:31N 35°33' E 139°55'0 0.0
2016-Feb-01 18:28N 35°33' E 139°55'0 0.0
2016-Feb-01 17:31N 35°33' E 139°55'0 0.0
2016-Feb-01 16:31N 35°33' E 139°55'0 0.0
2016-Feb-01 15:31N 35°33' E 139°55'0 0.0
2016-Feb-01 14:31N 35°33' E 139°55'0 0.0
2016-Feb-01 13:31N 35°33' E 139°55'0 0.0
2016-Feb-01 12:31N 35°33' E 139°55'9 9.1
2016-Feb-01 11:33N 35°26' E 139°48'1110.6
2016-Feb-01 10:34N 35°16' E 139°47'1211.9
2016-Feb-01 09:33N 35°04' E 139°43'  

Dump ship's entire track history